Time;durP1;ratioP1;P1;durP2;ratioP2;P2;SDS_P1;SDS_P2;PMS_P1;PMS_P2;Temp;Humidity;BMP_temperature;BMP_pressure;BME280_temperature;BME280_humidity;BME280_pressure;Samples;Min_cycle;Max_cycle;Signal;HPM_P1;HPM_P2
2022/11/10 00:00:26;;;;;;;2.45;2.05;;;;;;;;;;5002893;28;20056;-69
2022/11/10 00:03:10;;;;;;;2.40;2.20;;;;;;;;;;5002108;28;20061;-68
2022/11/10 00:05:55;;;;;;;2.50;2.30;;;;;;;;;;5003688;28;20161;-69
2022/11/10 00:08:39;;;;;;;2.85;2.35;;;;;;;;;;5003530;28;20418;-69
2022/11/10 00:11:23;;;;;;;2.38;2.10;;;;;;;;;;5003036;28;20057;-69
2022/11/10 00:17:11;;;;;;;3.25;2.25;;;;;;;;;;5003133;28;20134;-69
2022/11/10 00:19:55;;;;;;;2.55;2.30;;;;;;;;;;5002094;28;20049;-71
2022/11/10 00:22:40;;;;;;;2.55;2.00;;;;;;;;;;5003658;28;20052;-69
2022/11/10 00:25:25;;;;;;;2.80;2.38;;;;;;;;;;5002210;28;20131;-69
2022/11/10 00:28:09;;;;;;;2.50;2.30;;;;;;;;;;5003552;28;20061;-69
2022/11/10 00:30:53;;;;;;;3.15;2.60;;;;;;;;;;4997339;28;20512;-69
2022/11/10 00:33:40;;;;;;;2.88;2.53;;;;;;;;;;5000665;28;20129;-69
2022/11/10 00:36:24;;;;;;;3.90;2.42;;;;;;;;;;5002715;28;20418;-69
2022/11/10 00:39:09;;;;;;;2.97;2.38;;;;;;;;;;5002633;28;20089;-69
2022/11/10 00:41:53;;;;;;;2.30;2.10;;;;;;;;;;5003086;28;20415;-69
2022/11/10 00:44:37;;;;;;;3.50;2.30;;;;;;;;;;5002667;28;20485;-69
2022/11/10 00:47:21;;;;;;;3.40;2.00;;;;;;;;;;5001578;28;20068;-69
2022/11/10 00:50:06;;;;;;;2.30;2.10;;;;;;;;;;5002570;28;20127;-69
2022/11/10 00:52:50;;;;;;;2.10;1.88;;;;;;;;;;5002911;28;20068;-69
2022/11/10 00:55:39;;;;;;;2.50;1.63;;;;;;;;;;5000213;28;20108;-69
2022/11/10 00:58:23;;;;;;;2.10;1.80;;;;;;;;;;5001767;28;20064;-69
2022/11/10 01:01:08;;;;;;;1.77;1.67;;;;;;;;;;5002255;28;20500;-69
2022/11/10 01:03:53;;;;;;;2.40;1.98;;;;;;;;;;5002169;28;20061;-69
2022/11/10 01:06:37;;;;;;;4.50;1.85;;;;;;;;;;5002778;28;20513;-69
2022/11/10 01:09:21;;;;;;;2.00;1.80;;;;;;;;;;4999902;28;20144;-69
2022/11/10 01:12:05;;;;;;;1.52;1.42;;;;;;;;;;5000715;28;20057;-68
2022/11/10 01:14:49;;;;;;;2.10;1.90;;;;;;;;;;5000567;28;20049;-69
2022/11/10 01:17:33;;;;;;;1.67;1.50;;;;;;;;;;4997672;28;20057;-69
2022/11/10 01:20:17;;;;;;;2.35;1.73;;;;;;;;;;5000095;28;20581;-67
2022/11/10 01:23:02;;;;;;;2.38;1.98;;;;;;;;;;5000155;28;20089;-70
2022/11/10 01:25:46;;;;;;;1.60;1.50;;;;;;;;;;5002095;28;20132;-68
2022/11/10 01:28:31;;;;;;;1.50;1.40;;;;;;;;;;5002257;28;20061;-67
2022/11/10 01:31:18;;;;;;;1.63;1.52;;;;;;;;;;5000476;28;20153;-68
2022/11/10 01:34:02;;;;;;;2.40;1.60;;;;;;;;;;5002284;28;20103;-67
2022/11/10 01:36:46;;;;;;;2.05;1.42;;;;;;;;;;5002277;28;20057;-68
2022/11/10 01:39:30;;;;;;;1.63;1.52;;;;;;;;;;5001317;28;20088;-69
2022/11/10 01:42:14;;;;;;;7.03;1.70;;;;;;;;;;5001547;28;20083;-68
2022/11/10 01:45:40;;;;;;;1.52;1.40;;;;;;;;;;5001475;28;20104;-69
2022/11/10 01:48:50;;;;;;;1.60;1.35;;;;;;;;;;5000203;28;20164;-69
2022/11/10 01:51:40;;;;;;;1.85;1.52;;;;;;;;;;4999276;28;20072;-68
2022/11/10 01:54:29;;;;;;;1.20;1.10;;;;;;;;;;5001033;28;20119;-68
2022/11/10 01:57:15;;;;;;;2.83;1.17;;;;;;;;;;5001289;28;20053;-68
2022/11/10 02:00:00;;;;;;;3.53;1.30;;;;;;;;;;5001526;28;20140;-68
2022/11/10 02:03:27;;;;;;;1.30;1.20;;;;;;;;;;5001446;28;20065;-69
2022/11/10 02:06:12;;;;;;;1.08;1.08;;;;;;;;;;4978445;28;20057;-68
2022/11/10 02:08:58;;;;;;;1.15;1.05;;;;;;;;;;5001800;28;20133;-68
2022/11/10 02:11:43;;;;;;;1.25;1.00;;;;;;;;;;4998970;28;20536;-70
2022/11/10 02:14:27;;;;;;;1.33;1.00;;;;;;;;;;5001501;28;20165;-70
2022/11/10 02:17:12;;;;;;;1.40;1.30;;;;;;;;;;4998913;28;20088;-70
2022/11/10 02:20:03;;;;;;;1.40;1.30;;;;;;;;;;5001479;28;20103;-68
2022/11/10 02:22:47;;;;;;;0.80;0.80;;;;;;;;;;5000930;28;20111;-69
2022/11/10 02:25:31;;;;;;;1.20;1.10;;;;;;;;;;5000919;28;20069;-68
2022/11/10 02:28:15;;;;;;;0.98;0.90;;;;;;;;;;4995541;28;20052;-69
2022/11/10 02:31:00;;;;;;;2.03;0.95;;;;;;;;;;5000963;28;20149;-69
2022/11/10 02:33:44;;;;;;;3.13;1.20;;;;;;;;;;4998424;28;20052;-69
2022/11/10 02:36:28;;;;;;;0.85;0.85;;;;;;;;;;5001204;28;21174;-68
2022/11/10 02:39:12;;;;;;;1.00;1.00;;;;;;;;;;4999750;28;20061;-69
2022/11/10 02:41:56;;;;;;;0.90;0.90;;;;;;;;;;5000543;28;20060;-69
2022/11/10 02:44:40;;;;;;;0.88;0.88;;;;;;;;;;5000972;28;20064;-68
2022/11/10 02:47:24;;;;;;;0.88;0.88;;;;;;;;;;5000243;28;20064;-69
2022/11/10 02:50:08;;;;;;;0.60;0.60;;;;;;;;;;4999797;28;20068;-69
2022/11/10 02:52:52;;;;;;;0.90;0.90;;;;;;;;;;5000278;28;20191;-69
2022/11/10 02:55:37;;;;;;;0.88;0.88;;;;;;;;;;4980845;28;20572;-68
2022/11/10 02:58:21;;;;;;;2.42;0.80;;;;;;;;;;5000602;28;20056;-68
2022/11/10 03:01:06;;;;;;;1.05;0.95;;;;;;;;;;4999673;28;20060;-68
2022/11/10 03:03:50;;;;;;;0.80;0.80;;;;;;;;;;4997857;28;20071;-69
2022/11/10 03:06:34;;;;;;;0.80;0.80;;;;;;;;;;5000775;28;20049;-68
2022/11/10 03:09:18;;;;;;;0.90;0.90;;;;;;;;;;4999945;28;20422;-69
2022/11/10 03:12:02;;;;;;;2.05;0.80;;;;;;;;;;4999724;28;20115;-69
2022/11/10 03:14:46;;;;;;;1.95;0.90;;;;;;;;;;5000261;28;20145;-69
2022/11/10 03:17:30;;;;;;;0.60;0.60;;;;;;;;;;5000209;28;20111;-68
2022/11/10 03:20:15;;;;;;;0.60;0.60;;;;;;;;;;5000501;28;20080;-69
2022/11/10 03:23:03;;;;;;;1.10;0.75;;;;;;;;;;4999372;28;20542;-70
2022/11/10 03:25:47;;;;;;;0.65;0.65;;;;;;;;;;4998104;28;20601;-68
2022/11/10 03:28:33;;;;;;;0.82;0.70;;;;;;;;;;5000401;28;20081;-70
2022/11/10 03:31:17;;;;;;;4.13;0.80;;;;;;;;;;5000156;28;20092;-68
2022/11/10 03:34:01;;;;;;;1.17;0.50;;;;;;;;;;4999024;28;20045;-70
2022/11/10 03:36:45;;;;;;;0.52;0.52;;;;;;;;;;5000545;28;20041;-68
2022/11/10 03:39:30;;;;;;;2.60;1.17;;;;;;;;;;5000027;28;20139;-69
2022/11/10 03:42:14;;;;;;;7.32;1.08;;;;;;;;;;5000575;28;20053;-68
2022/11/10 03:44:58;;;;;;;2.65;0.90;;;;;;;;;;4998153;28;20516;-68
2022/11/10 03:47:47;;;;;;;1.70;0.80;;;;;;;;;;5012875;28;20197;-68
2022/11/10 03:50:31;;;;;;;0.75;0.75;;;;;;;;;;5000847;28;20197;-70
2022/11/10 03:53:15;;;;;;;1.15;0.80;;;;;;;;;;5000557;28;20100;-69
2022/11/10 03:56:04;;;;;;;2.58;0.90;;;;;;;;;;5003181;28;20083;-68
2022/11/10 03:58:48;;;;;;;1.25;1.05;;;;;;;;;;5001973;28;20096;-69
2022/11/10 04:01:32;;;;;;;1.38;1.08;;;;;;;;;;5003169;28;20087;-69
2022/11/10 04:10:21;;;;;;;2.75;1.20;;;;;;;;;;5003905;28;20072;-69
2022/11/10 04:16:09;;;;;;;3.22;1.30;;;;;;;;;;5003209;28;20056;-69
2022/11/10 04:18:53;;;;;;;4.15;1.13;;;;;;;;;;5003561;28;20119;-68
2022/11/10 04:21:37;;;;;;;1.80;1.20;;;;;;;;;;5001556;28;20060;-69
2022/11/10 04:24:21;;;;;;;2.00;1.33;;;;;;;;;;5003108;28;20049;-68
2022/11/10 04:27:05;;;;;;;6.97;1.40;;;;;;;;;;5002449;28;20227;-68
2022/11/10 04:29:49;;;;;;;3.65;1.40;;;;;;;;;;5003108;28;20076;-68
2022/11/10 04:32:33;;;;;;;3.78;1.15;;;;;;;;;;5002341;28;20061;-68
2022/11/10 04:35:17;;;;;;;1.88;1.30;;;;;;;;;;5002742;28;20508;-68
2022/11/10 04:38:01;;;;;;;5.90;1.40;;;;;;;;;;5003672;28;20553;-68
2022/11/10 04:40:46;;;;;;;6.53;1.50;;;;;;;;;;5002856;28;20240;-68
2022/11/10 04:43:31;;;;;;;3.95;1.60;;;;;;;;;;5002868;28;20108;-68
2022/11/10 04:46:25;;;;;;;7.28;1.70;;;;;;;;;;5002689;28;20108;-68
2022/11/10 04:49:10;;;;;;;3.80;1.80;;;;;;;;;;5001340;28;20064;-69
2022/11/10 04:51:54;;;;;;;5.32;1.73;;;;;;;;;;5003206;28;20048;-69
2022/11/10 04:54:38;;;;;;;3.53;2.22;;;;;;;;;;5001227;28;20049;-69
2022/11/10 04:57:22;;;;;;;2.80;1.80;;;;;;;;;;5002239;28;20153;-69
2022/11/10 05:00:07;;;;;;;5.05;2.38;;;;;;;;;;5002762;28;20052;-69
2022/11/10 05:02:51;;;;;;;5.10;2.35;;;;;;;;;;5002777;28;20495;-69
2022/11/10 05:05:36;;;;;;;5.57;2.08;;;;;;;;;;4997138;28;20520;-70
2022/11/10 05:08:19;;;;;;;4.40;2.63;;;;;;;;;;5002637;28;20529;-72
2022/11/10 05:11:04;;;;;;;4.88;2.20;;;;;;;;;;5002200;28;20052;-72
2022/11/10 05:13:48;;;;;;;5.15;2.40;;;;;;;;;;5002261;28;20089;-70
2022/11/10 05:16:32;;;;;;;5.10;2.45;;;;;;;;;;5002098;28;20170;-71
2022/11/10 05:19:17;;;;;;;4.70;2.25;;;;;;;;;;5001332;28;20052;-70
2022/11/10 05:22:01;;;;;;;4.18;2.17;;;;;;;;;;5002527;28;20529;-72
2022/11/10 05:24:45;;;;;;;8.05;3.00;;;;;;;;;;4993593;28;20061;-69
2022/11/10 05:27:29;;;;;;;5.65;2.58;;;;;;;;;;5002472;28;20423;-68
2022/11/10 05:30:13;;;;;;;3.22;2.25;;;;;;;;;;5002499;28;20149;-68
2022/11/10 05:32:57;;;;;;;7.45;3.05;;;;;;;;;;5001516;28;20056;-71
2022/11/10 05:35:43;;;;;;;6.43;2.40;;;;;;;;;;4998527;28;21136;-68
2022/11/10 05:38:27;;;;;;;3.97;2.55;;;;;;;;;;5001994;28;20417;-69
2022/11/10 05:41:12;;;;;;;3.20;2.72;;;;;;;;;;5000910;28;20997;-71
2022/11/10 05:43:56;;;;;;;8.15;3.28;;;;;;;;;;5001243;28;20076;-69
2022/11/10 05:46:44;;;;;;;7.75;3.03;;;;;;;;;;4999866;28;20057;-69
2022/11/10 05:49:28;;;;;;;7.28;3.05;;;;;;;;;;4997918;28;20108;-69
2022/11/10 05:52:12;;;;;;;9.75;3.47;;;;;;;;;;5000692;28;20061;-69
2022/11/10 05:54:57;;;;;;;6.82;3.55;;;;;;;;;;5000751;28;20056;-69
2022/11/10 05:57:46;;;;;;;5.65;2.78;;;;;;;;;;5010107;28;20123;-72
2022/11/10 06:00:31;;;;;;;7.68;3.00;;;;;;;;;;5001685;28;20052;-69
2022/11/10 06:03:18;;;;;;;6.53;3.67;;;;;;;;;;4999402;28;20073;-70
2022/11/10 06:06:02;;;;;;;6.80;3.00;;;;;;;;;;5001815;28;20537;-70
2022/11/10 06:08:46;;;;;;;8.82;3.17;;;;;;;;;;5001680;28;20053;-69
2022/11/10 06:11:30;;;;;;;9.77;3.17;;;;;;;;;;5001066;28;20110;-70
2022/11/10 06:14:14;;;;;;;5.57;2.80;;;;;;;;;;5001141;28;20616;-69
2022/11/10 06:16:59;;;;;;;8.05;3.00;;;;;;;;;;5000777;28;20092;-69
2022/11/10 06:19:43;;;;;;;7.60;2.70;;;;;;;;;;4994085;28;20061;-70
2022/11/10 06:22:27;;;;;;;11.38;3.67;;;;;;;;;;5000089;28;20111;-69
2022/11/10 06:25:11;;;;;;;7.68;3.03;;;;;;;;;;4999471;28;20145;-69
2022/11/10 06:27:56;;;;;;;10.10;3.20;;;;;;;;;;5000593;28;20056;-69
2022/11/10 06:30:40;;;;;;;3.90;2.90;;;;;;;;;;5000254;28;20052;-70
2022/11/10 06:33:24;;;;;;;3.90;2.67;;;;;;;;;;4999832;28;20052;-71
2022/11/10 06:36:08;;;;;;;4.65;2.90;;;;;;;;;;5001460;28;20065;-70
2022/11/10 06:38:52;;;;;;;5.75;2.88;;;;;;;;;;5001254;28;20322;-71
2022/11/10 06:41:36;;;;;;;5.28;2.92;;;;;;;;;;4998552;28;20057;-69
2022/11/10 06:44:20;;;;;;;7.30;3.00;;;;;;;;;;5001354;28;20096;-69
2022/11/10 06:47:04;;;;;;;8.73;3.10;;;;;;;;;;5000681;28;20184;-72
2022/11/10 06:49:48;;;;;;;7.07;3.15;;;;;;;;;;5001151;28;20057;-71
2022/11/10 06:52:33;;;;;;;9.95;3.50;;;;;;;;;;5001076;28;20435;-69
2022/11/10 06:55:17;;;;;;;6.15;3.15;;;;;;;;;;4992970;28;20398;-71
2022/11/10 06:58:01;;;;;;;5.68;2.70;;;;;;;;;;4999342;28;20119;-68
2022/11/10 07:00:45;;;;;;;3.60;2.92;;;;;;;;;;5001336;28;20402;-71
2022/11/10 07:03:29;;;;;;;8.95;2.88;;;;;;;;;;4999714;28;20048;-71
2022/11/10 07:06:13;;;;;;;5.30;2.30;;;;;;;;;;4999937;28;20111;-70
2022/11/10 07:08:57;;;;;;;6.13;2.20;;;;;;;;;;4999879;28;20056;-68
2022/11/10 07:11:41;;;;;;;5.30;2.38;;;;;;;;;;4998452;28;20096;-70
2022/11/10 07:14:25;;;;;;;5.03;2.85;;;;;;;;;;4999953;28;20130;-69
2022/11/10 07:17:10;;;;;;;5.40;2.92;;;;;;;;;;5000328;28;20053;-69
2022/11/10 07:19:53;;;;;;;6.30;3.05;;;;;;;;;;5000802;28;20111;-69
2022/11/10 07:22:37;;;;;;;6.93;2.88;;;;;;;;;;5002562;28;20426;-71
2022/11/10 07:25:22;;;;;;;4.78;3.08;;;;;;;;;;4999751;28;20053;-73
2022/11/10 07:28:09;;;;;;;6.78;3.67;;;;;;;;;;5001762;28;20056;-70
2022/11/10 07:30:53;;;;;;;6.97;3.40;;;;;;;;;;5003519;28;20056;-69
2022/11/10 07:33:38;;;;;;;9.98;3.20;;;;;;;;;;5002216;28;20080;-70
2022/11/10 07:36:22;;;;;;;4.85;3.30;;;;;;;;;;5004275;28;20064;-71
2022/11/10 07:39:06;;;;;;;5.93;3.33;;;;;;;;;;5004205;28;20052;-71
2022/11/10 07:41:49;;;;;;;7.20;3.67;;;;;;;;;;5005087;28;20096;-68
2022/11/10 07:44:34;;;;;;;5.45;3.38;;;;;;;;;;5004819;28;20077;-71
2022/11/10 07:47:18;;;;;;;10.25;4.00;;;;;;;;;;5003906;28;20077;-68
2022/11/10 07:50:02;;;;;;;5.65;4.07;;;;;;;;;;5004829;28;20057;-71
2022/11/10 07:52:46;;;;;;;7.18;4.18;;;;;;;;;;5004964;28;20052;-67
2022/11/10 07:55:30;;;;;;;5.32;3.75;;;;;;;;;;5004391;28;20057;-70
2022/11/10 07:58:16;;;;;;;6.43;3.17;;;;;;;;;;5004122;28;20112;-68
2022/11/10 08:01:00;;;;;;;4.35;2.85;;;;;;;;;;5017928;28;20052;-71
2022/11/10 08:03:45;;;;;;;7.70;3.10;;;;;;;;;;4990743;28;20526;-68
2022/11/10 08:06:30;;;;;;;5.97;3.63;;;;;;;;;;5005793;28;20062;-73
2022/11/10 08:09:14;;;;;;;8.18;3.45;;;;;;;;;;5004001;28;20061;-69
2022/11/10 08:11:58;;;;;;;4.38;2.83;;;;;;;;;;5006019;28;20048;-72
2022/11/10 08:14:42;;;;;;;5.63;2.92;;;;;;;;;;5006653;28;20465;-70
2022/11/10 08:17:27;;;;;;;4.97;2.00;;;;;;;;;;5005741;28;20521;-70
2022/11/10 08:20:11;;;;;;;3.67;2.08;;;;;;;;;;5004265;28;20536;-68
2022/11/10 08:22:57;;;;;;;7.00;2.55;;;;;;;;;;5003778;28;20055;-68
2022/11/10 08:25:41;;;;;;;4.68;1.90;;;;;;;;;;4986694;28;20060;-68
2022/11/10 08:28:26;;;;;;;4.90;2.20;;;;;;;;;;5002885;28;20067;-68
2022/11/10 08:31:10;;;;;;;7.63;1.92;;;;;;;;;;5001690;28;20523;-71
2022/11/10 08:33:54;;;;;;;4.05;1.80;;;;;;;;;;5003231;28;20077;-72
2022/11/10 08:36:38;;;;;;;1.63;1.33;;;;;;;;;;5003529;28;20140;-74
2022/11/10 08:39:22;;;;;;;2.90;1.30;;;;;;;;;;5001599;28;20465;-69
2022/11/10 08:42:06;;;;;;;2.67;1.30;;;;;;;;;;5002312;28;20429;-73
2022/11/10 08:44:50;;;;;;;3.10;1.50;;;;;;;;;;5002750;28;20557;-69
2022/11/10 08:47:34;;;;;;;1.63;1.33;;;;;;;;;;4999311;28;20115;-73
2022/11/10 08:50:19;;;;;;;4.95;2.00;;;;;;;;;;5002720;28;20120;-69
2022/11/10 08:53:09;;;;;;;3.05;1.90;;;;;;;;;;5001889;28;20056;-70
2022/11/10 08:55:57;;;;;;;6.25;1.75;;;;;;;;;;4990506;28;20073;-71
2022/11/10 08:58:41;;;;;;;4.95;2.00;;;;;;;;;;5002482;28;21181;-72
2022/11/10 09:01:25;;;;;;;4.03;1.70;;;;;;;;;;5002579;28;20473;-69
2022/11/10 09:04:09;;;;;;;2.47;1.40;;;;;;;;;;5001755;28;20211;-71
2022/11/10 09:06:56;;;;;;;1.42;1.17;;;;;;;;;;5003295;28;20065;-70
2022/11/10 09:09:40;;;;;;;5.53;1.15;;;;;;;;;;4989246;28;20069;-71
2022/11/10 09:12:24;;;;;;;2.50;1.10;;;;;;;;;;5002648;28;20154;-73
2022/11/10 09:15:10;;;;;;;2.67;1.20;;;;;;;;;;4999661;28;20100;-72
2022/11/10 09:17:57;;;;;;;1.83;1.05;;;;;;;;;;5001958;28;20058;-71
2022/11/10 09:20:41;;;;;;;3.28;1.20;;;;;;;;;;5002130;28;20095;-74
2022/11/10 09:23:27;;;;;;;2.30;1.13;;;;;;;;;;5001754;28;21624;-74
2022/11/10 09:26:11;;;;;;;3.47;1.30;;;;;;;;;;5001308;28;20196;-72
2022/11/10 09:28:55;;;;;;;4.75;1.30;;;;;;;;;;4997258;28;20541;-71
2022/11/10 09:31:41;;;;;;;6.13;1.38;;;;;;;;;;4973404;28;20058;-71
2022/11/10 09:34:26;;;;;;;1.63;1.05;;;;;;;;;;5001085;28;20615;-73
2022/11/10 09:37:10;;;;;;;2.85;1.05;;;;;;;;;;4999748;28;20569;-70
2022/11/10 09:39:54;;;;;;;1.80;1.00;;;;;;;;;;5001241;28;20069;-73
2022/11/10 09:42:40;;;;;;;2.72;1.35;;;;;;;;;;5001491;28;20052;-73
2022/11/10 09:45:27;;;;;;;5.30;1.23;;;;;;;;;;5001743;28;20056;-69
2022/11/10 09:48:23;;;;;;;3.97;1.60;;;;;;;;;;5001431;28;20064;-73
2022/11/10 09:51:18;;;;;;;3.38;1.23;;;;;;;;;;5003628;28;20052;-70
2022/11/10 09:54:13;;;;;;;5.07;1.17;;;;;;;;;;5005803;28;20048;-70
2022/11/10 09:56:59;;;;;;;3.38;1.10;;;;;;;;;;5005596;28;20553;-72
2022/11/10 09:59:43;;;;;;;3.60;1.10;;;;;;;;;;4993716;28;20064;-69
2022/11/10 10:02:39;;;;;;;3.78;1.38;;;;;;;;;;5003580;28;20056;-69
2022/11/10 10:05:41;;;;;;;9.93;1.23;;;;;;;;;;5003409;28;20406;-69
2022/11/10 10:08:39;;;;;;;3.47;0.90;;;;;;;;;;4991747;28;20056;-73
2022/11/10 10:11:39;;;;;;;7.10;1.50;;;;;;;;;;5000708;28;20104;-70
2022/11/10 10:14:28;;;;;;;5.45;1.30;;;;;;;;;;5002224;28;20069;-72
2022/11/10 10:17:18;;;;;;;4.80;1.75;;;;;;;;;;5000411;28;20056;-71
2022/11/10 10:20:24;;;;;;;4.90;1.45;;;;;;;;;;5001095;28;20095;-72
2022/11/10 10:23:24;;;;;;;3.33;1.05;;;;;;;;;;5000581;28;20103;-71
2022/11/10 10:26:14;;;;;;;1.20;0.98;;;;;;;;;;5001506;28;20053;-70
2022/11/10 10:29:04;;;;;;;2.20;1.00;;;;;;;;;;5001750;28;20080;-72
2022/11/10 10:31:51;;;;;;;2.38;1.23;;;;;;;;;;4999138;28;20219;-71
2022/11/10 10:34:35;;;;;;;3.13;1.10;;;;;;;;;;5000953;28;20122;-70
2022/11/10 10:37:24;;;;;;;2.38;1.05;;;;;;;;;;5000282;28;20140;-69
2022/11/10 10:40:13;;;;;;;4.85;1.20;;;;;;;;;;5000943;28;20533;-71
2022/11/10 10:42:58;;;;;;;2.10;1.00;;;;;;;;;;4999839;28;20099;-70
2022/11/10 10:45:42;;;;;;;4.88;1.30;;;;;;;;;;4984640;28;20050;-72
2022/11/10 10:48:29;;;;;;;2.08;0.90;;;;;;;;;;5000312;28;20578;-71
2022/11/10 10:51:29;;;;;;;6.25;1.23;;;;;;;;;;4998949;28;20089;-71
2022/11/10 10:54:26;;;;;;;2.95;1.00;;;;;;;;;;4998985;28;20680;-69
2022/11/10 10:57:30;;;;;;;5.00;1.25;;;;;;;;;;4999801;28;20052;-72
2022/11/10 11:00:18;;;;;;;4.03;2.08;;;;;;;;;;4999903;28;20197;-72
2022/11/10 11:03:06;;;;;;;1.30;1.05;;;;;;;;;;5003855;28;20069;-70
2022/11/10 11:06:18;;;;;;;1.80;0.98;;;;;;;;;;5001919;28;20116;-72
2022/11/10 11:09:05;;;;;;;;;;;;;;;;;;5002341;28;20053;-70
2022/11/10 11:12:00;;;;;;;2.58;1.10;;;;;;;;;;4999072;28;19971;-70
2022/11/10 11:14:45;;;;;;;3.42;1.10;;;;;;;;;;4998744;28;20687;-70
2022/11/10 11:17:29;;;;;;;4.97;0.68;;;;;;;;;;5000200;28;20116;-70
2022/11/10 11:20:14;;;;;;;3.95;0.80;;;;;;;;;;4999973;28;20065;-70
2022/11/10 11:23:07;;;;;;;2.42;0.90;;;;;;;;;;5000275;28;20156;-70
2022/11/10 11:25:56;;;;;;;2.60;0.90;;;;;;;;;;4983797;28;20202;-72
2022/11/10 11:28:51;;;;;;;3.58;1.30;;;;;;;;;;4999280;28;20072;-70
2022/11/10 11:31:41;;;;;;;6.18;1.10;;;;;;;;;;5000371;28;20064;-71
2022/11/10 11:34:25;;;;;;;5.95;0.90;;;;;;;;;;5000320;28;20056;-72
2022/11/10 11:37:42;;;;;;;4.28;1.10;;;;;;;;;;4999914;28;20060;-72
2022/11/10 11:40:47;;;;;;;4.70;0.80;;;;;;;;;;4966427;28;20107;-70
2022/11/10 11:44:11;;;;;;;2.45;1.00;;;;;;;;;;4999319;28;20139;-72
2022/11/10 11:47:23;;;;;;;7.22;1.17;;;;;;;;;;4996912;28;20061;-70
2022/11/10 11:50:43;;;;;;;4.45;1.27;;;;;;;;;;5002275;28;20406;-70
2022/11/10 11:53:30;;;;;;;4.55;0.93;;;;;;;;;;4998632;28;20071;-72
2022/11/10 11:56:14;;;;;;;3.78;1.10;;;;;;;;;;4997875;28;20151;-71
2022/11/10 11:59:28;;;;;;;4.57;1.42;;;;;;;;;;4997532;28;20085;-70
2022/11/10 12:02:44;;;;;;;3.05;1.10;;;;;;;;;;5000861;28;20164;-71
2022/11/10 12:05:53;;;;;;;6.65;1.20;;;;;;;;;;4999598;28;20132;-71
2022/11/10 12:08:48;;;;;;;3.20;0.95;;;;;;;;;;4999381;28;20697;-70
2022/11/10 12:11:41;;;;;;;3.83;1.15;;;;;;;;;;4988672;28;20052;-71
2022/11/10 12:14:52;;;;;;;1.10;0.85;;;;;;;;;;4998702;28;20096;-69
2022/11/10 12:17:46;;;;;;;6.50;1.48;;;;;;;;;;5001665;28;20053;-74
2022/11/10 12:20:51;;;;;;;2.33;1.20;;;;;;;;;;5002261;28;20184;-70
2022/11/10 12:23:38;;;;;;;3.33;1.08;;;;;;;;;;5002466;28;20168;-71
2022/11/10 12:26:41;;;;;;;2.83;1.02;;;;;;;;;;5002093;28;20107;-73
2022/11/10 12:29:52;;;;;;;1.77;0.82;;;;;;;;;;5001213;28;20063;-72
2022/11/10 12:32:46;;;;;;;2.55;1.10;;;;;;;;;;5001128;28;20078;-70
2022/11/10 12:35:37;;;;;;;2.83;1.10;;;;;;;;;;5001675;28;20103;-71
2022/11/10 12:39:00;;;;;;;2.65;0.90;;;;;;;;;;5001264;28;20060;-71
2022/11/10 12:41:53;;;;;;;2.38;1.13;;;;;;;;;;4933002;28;20159;-71
2022/11/10 12:45:01;;;;;;;5.78;1.08;;;;;;;;;;4988358;28;20096;-71
2022/11/10 12:47:46;;;;;;;3.70;1.30;;;;;;;;;;4998543;28;20225;-73
2022/11/10 12:51:24;;;;;;;7.85;1.13;;;;;;;;;;5014953;28;20053;-72
2022/11/10 12:54:12;;;;;;;4.10;1.25;;;;;;;;;;4908360;29;20193;-70
2022/11/10 12:57:09;;;;;;;2.85;1.10;;;;;;;;;;4906935;29;20204;-71
2022/11/10 13:00:00;;;;;;;4.47;0.90;;;;;;;;;;4991321;28;20057;-70
2022/11/10 13:02:45;;;;;;;2.08;1.02;;;;;;;;;;5002224;28;20060;-71
2022/11/10 13:05:31;;;;;;;3.67;1.10;;;;;;;;;;5000155;28;20613;-70
2022/11/10 13:08:26;;;;;;;3.40;0.90;;;;;;;;;;5001267;28;20057;-72
2022/11/10 13:11:10;;;;;;;5.10;1.30;;;;;;;;;;4998323;28;20057;-70
2022/11/10 13:13:59;;;;;;;7.38;1.23;;;;;;;;;;4998469;28;20177;-71
2022/11/10 13:16:43;;;;;;;2.78;0.90;;;;;;;;;;4996611;28;20053;-71
2022/11/10 13:19:27;;;;;;;1.58;0.80;;;;;;;;;;5000351;28;20137;-75
2022/11/10 13:22:28;;;;;;;2.22;0.93;;;;;;;;;;5000366;28;20080;-71
2022/11/10 13:25:34;;;;;;;2.83;1.30;;;;;;;;;;5000426;28;20108;-70
2022/11/10 13:28:46;;;;;;;1.40;0.80;;;;;;;;;;4999972;28;20423;-70
2022/11/10 13:31:30;;;;;;;3.95;0.98;;;;;;;;;;4999965;28;20085;-70
2022/11/10 13:34:20;;;;;;;1.92;1.05;;;;;;;;;;5000429;28;20419;-70
2022/11/10 13:37:28;;;;;;;3.60;1.10;;;;;;;;;;5003022;28;20104;-71
2022/11/10 13:40:18;;;;;;;2.22;0.85;;;;;;;;;;4999995;28;20063;-72
2022/11/10 13:43:23;;;;;;;1.92;0.77;;;;;;;;;;5001098;28;20176;-73
2022/11/10 13:46:07;;;;;;;3.70;0.93;;;;;;;;;;4999907;28;20064;-73
2022/11/10 13:49:14;;;;;;;2.58;0.90;;;;;;;;;;4999688;28;20056;-71
2022/11/10 13:52:18;;;;;;;3.20;1.00;;;;;;;;;;4998426;28;20053;-69
2022/11/10 13:55:23;;;;;;;3.33;1.10;;;;;;;;;;4990459;28;20080;-72
2022/11/10 13:58:10;;;;;;;2.35;0.93;;;;;;;;;;4998243;28;20631;-70
2022/11/10 14:01:13;;;;;;;2.28;0.77;;;;;;;;;;4998822;28;20073;-69
2022/11/10 14:04:04;;;;;;;3.33;1.00;;;;;;;;;;4997575;28;20633;-69
2022/11/10 14:06:51;;;;;;;5.80;0.93;;;;;;;;;;4997950;28;20060;-71
2022/11/10 14:09:40;;;;;;;6.05;0.80;;;;;;;;;;4999907;28;20092;-69
2022/11/10 14:12:24;;;;;;;2.53;0.70;;;;;;;;;;4999797;28;20072;-72
2022/11/10 14:15:19;;;;;;;5.60;0.98;;;;;;;;;;4995790;28;20081;-72
2022/11/10 14:18:27;;;;;;;5.05;0.98;;;;;;;;;;4997544;28;20053;-70
2022/11/10 14:21:21;;;;;;;1.80;0.70;;;;;;;;;;4998684;28;20501;-70
2022/11/10 14:24:27;;;;;;;2.22;0.73;;;;;;;;;;4999512;28;20132;-70
2022/11/10 14:27:22;;;;;;;2.83;0.80;;;;;;;;;;5001013;28;20065;-70
2022/11/10 14:30:18;;;;;;;3.53;1.10;;;;;;;;;;4984230;28;20120;-73
2022/11/10 14:33:05;;;;;;;2.58;1.40;;;;;;;;;;4999700;28;20569;-70
2022/11/10 14:35:53;;;;;;;6.00;1.15;;;;;;;;;;4997125;28;20067;-71
2022/11/10 14:38:43;;;;;;;2.35;1.10;;;;;;;;;;4999033;28;20184;-72
2022/11/10 14:41:27;;;;;;;7.47;1.30;;;;;;;;;;4999952;28;20052;-69
2022/11/10 14:44:18;;;;;;;3.17;0.90;;;;;;;;;;4999699;28;20112;-70
2022/11/10 14:47:23;;;;;;;2.30;1.10;;;;;;;;;;4999876;28;20514;-69
2022/11/10 14:50:28;;;;;;;3.42;0.90;;;;;;;;;;4990252;28;20061;-69
2022/11/10 14:53:28;;;;;;;1.67;0.95;;;;;;;;;;4997813;28;20685;-70
2022/11/10 14:56:19;;;;;;;3.67;1.05;;;;;;;;;;4996696;28;20107;-68
2022/11/10 14:59:08;;;;;;;4.75;1.00;;;;;;;;;;4999705;28;20104;-71
2022/11/10 15:02:00;;;;;;;3.00;0.98;;;;;;;;;;4995516;28;20092;-69
2022/11/10 15:04:46;;;;;;;1.77;1.08;;;;;;;;;;4999616;28;20430;-68
2022/11/10 15:07:30;;;;;;;4.10;1.23;;;;;;;;;;4998655;28;20057;-72
2022/11/10 15:10:19;;;;;;;5.25;1.75;;;;;;;;;;4999918;28;20621;-71
2022/11/10 15:13:12;;;;;;;3.33;1.40;;;;;;;;;;5001622;28;20088;-68
2022/11/10 15:16:21;;;;;;;4.07;1.40;;;;;;;;;;4997743;28;20409;-70
2022/11/10 15:19:24;;;;;;;1.40;1.00;;;;;;;;;;4999955;28;20089;-69
2022/11/10 15:22:11;;;;;;;9.77;3.03;;;;;;;;;;4998555;28;20119;-69
2022/11/10 15:24:58;;;;;;;12.82;4.63;;;;;;;;;;5001493;28;20084;-70
2022/11/10 15:27:57;;;;;;;9.45;3.92;;;;;;;;;;5001938;28;20068;-70
2022/11/10 15:30:50;;;;;;;8.20;3.30;;;;;;;;;;5002369;28;20069;-72
2022/11/10 15:33:36;;;;;;;5.88;2.47;;;;;;;;;;5003361;28;20056;-70
2022/11/10 15:36:23;;;;;;;3.92;2.85;;;;;;;;;;4992246;28;20453;-71
2022/11/10 15:39:10;;;;;;;4.78;1.90;;;;;;;;;;4999077;28;20668;-71
2022/11/10 15:41:57;;;;;;;3.65;1.48;;;;;;;;;;4997912;28;20065;-69
2022/11/10 15:44:45;;;;;;;2.38;1.50;;;;;;;;;;5000353;28;20053;-70
2022/11/10 15:47:30;;;;;;;4.15;1.90;;;;;;;;;;4999396;28;20538;-72
2022/11/10 15:50:14;;;;;;;6.95;2.97;;;;;;;;;;5000910;28;20056;-71
2022/11/10 15:52:58;;;;;;;7.72;2.92;;;;;;;;;;5002709;28;20092;-72
2022/11/10 15:55:44;;;;;;;10.55;3.40;;;;;;;;;;4994787;28;20132;-72
2022/11/10 15:58:28;;;;;;;4.93;2.50;;;;;;;;;;5001320;28;20663;-68
2022/11/10 16:01:13;;;;;;;7.15;3.20;;;;;;;;;;5000395;28;20056;-73
2022/11/10 16:03:58;;;;;;;8.90;4.05;;;;;;;;;;5001399;28;20119;-71
2022/11/10 16:06:42;;;;;;;12.77;3.17;;;;;;;;;;5002911;28;20057;-69
2022/11/10 16:09:26;;;;;;;8.15;4.63;;;;;;;;;;5002111;28;20061;-69
2022/11/10 16:12:19;;;;;;;9.82;4.55;;;;;;;;;;5001997;28;20140;-70
2022/11/10 16:15:04;;;;;;;9.23;5.53;;;;;;;;;;5001765;28;20056;-72
2022/11/10 16:17:49;;;;;;;14.35;5.32;;;;;;;;;;4999820;28;20479;-74
2022/11/10 16:20:33;;;;;;;14.35;5.25;;;;;;;;;;5002681;28;20687;-68
2022/11/10 16:23:18;;;;;;;17.77;7.20;;;;;;;;;;5000859;28;20509;-72
2022/11/10 16:26:03;;;;;;;13.32;5.95;;;;;;;;;;5001280;28;20053;-69
2022/11/10 16:28:48;;;;;;;7.10;3.28;;;;;;;;;;5002865;28;20061;-70
2022/11/10 16:31:33;;;;;;;9.93;3.30;;;;;;;;;;5002474;28;20410;-68
2022/11/10 16:34:17;;;;;;;9.95;3.40;;;;;;;;;;5002635;28;20524;-72
2022/11/10 16:37:02;;;;;;;7.32;3.53;;;;;;;;;;5003098;28;20164;-72
2022/11/10 16:39:46;;;;;;;5.55;3.10;;;;;;;;;;5000565;28;20136;-72
2022/11/10 16:42:30;;;;;;;13.15;4.70;;;;;;;;;;5003125;28;20057;-72
2022/11/10 16:45:22;;;;;;;15.07;7.88;;;;;;;;;;5001563;28;20127;-75
2022/11/10 16:48:06;;;;;;;14.32;7.20;;;;;;;;;;5000362;28;20056;-72
2022/11/10 16:50:53;;;;;;;20.05;8.15;;;;;;;;;;5002122;28;20096;-72
2022/11/10 16:53:37;;;;;;;22.10;11.15;;;;;;;;;;5001465;28;20134;-72
2022/11/10 16:56:22;;;;;;;36.25;17.90;;;;;;;;;;5000987;28;20068;-69
2022/11/10 16:59:05;;;;;;;42.08;18.48;;;;;;;;;;5003086;28;20152;-69
2022/11/10 17:01:52;;;;;;;41.70;19.73;;;;;;;;;;4987549;28;20108;-70